createdAt,value
2022-08-03T00:02:32.367Z,100808.72
2022-08-03T00:07:35.367Z,100804.56
2022-08-03T00:12:38.376Z,100808.38
2022-08-03T00:17:52.384Z,100815.66
2022-08-03T00:22:56.922Z,100815.88
2022-08-03T00:28:00.867Z,100815.94
2022-08-03T00:33:05.565Z,100809.88
2022-08-03T00:43:34.368Z,100802.94
2022-08-03T00:48:39.812Z,100807.19
2022-08-03T00:53:42.781Z,100817.91
2022-08-03T00:58:46.448Z,100813.41
2022-08-03T01:03:50.936Z,100811.88
2022-08-03T01:09:02.267Z,100816.50
2022-08-03T01:14:19.029Z,100819.13
2022-08-03T01:19:32.711Z,100823.72
2022-08-03T01:24:40.619Z,100814.41
2022-08-03T01:29:53.325Z,100816.13
2022-08-03T01:35:00.141Z,100826.19
2022-08-03T01:40:04.126Z,100824.59
2022-08-03T01:45:10.076Z,100822.75
2022-08-03T01:50:14.480Z,100819.97
2022-08-03T01:55:20.418Z,100808.63
2022-08-03T02:00:26.542Z,100809.59
2022-08-03T02:05:30.665Z,100799.47
2022-08-03T02:10:35.903Z,100807.06
2022-08-03T02:15:40.955Z,100806.59
2022-08-03T02:20:44.640Z,100798.63
2022-08-03T02:25:49.200Z,100796.13
2022-08-03T02:30:54.825Z,100795.56
2022-08-03T02:35:58.567Z,100792.16
2022-08-03T02:41:06.087Z,100803.84
2022-08-03T02:46:11.189Z,100806.81
2022-08-03T02:51:15.018Z,100805.06
2022-08-03T02:56:19.269Z,100804.25
2022-08-03T03:01:25.164Z,100809.38
2022-08-03T03:06:30.114Z,100808.50
2022-08-03T03:11:33.584Z,100811.69
2022-08-03T03:16:38.093Z,100819.72
2022-08-03T03:21:41.473Z,100821.97
2022-08-03T03:26:44.670Z,100821.91
2022-08-03T03:31:49.668Z,100815.41
2022-08-03T03:36:52.677Z,100813.59
2022-08-03T03:41:55.809Z,100818.41
2022-08-03T03:47:00.159Z,100828.16
2022-08-03T03:52:03.174Z,100822.13
2022-08-03T03:57:06.324Z,100826.09
2022-08-03T04:02:11.365Z,100833.94
2022-08-03T04:07:31.680Z,100834.53
2022-08-03T04:12:35.355Z,100837.78
2022-08-03T04:17:41.622Z,100843.84
2022-08-03T04:22:44.635Z,100851.59
2022-08-03T04:28:07.635Z,100848.81
2022-08-03T04:33:13.372Z,100857.38
2022-08-03T04:38:19.539Z,100865.16
2022-08-03T04:43:23.664Z,100870.19
2022-08-03T04:48:28.435Z,100866.59
2022-08-03T04:53:31.598Z,100871.22
2022-08-03T04:58:34.788Z,100875.91
2022-08-03T05:03:39.293Z,100866.16
2022-08-03T05:08:46.254Z,100866.81
2022-08-03T05:13:49.983Z,100877.00
2022-08-03T05:18:54.321Z,100880.50
2022-08-03T05:23:57.253Z,100881.50
2022-08-03T05:29:00.253Z,100881.25
2022-08-03T05:34:04.539Z,100884.38
2022-08-03T05:39:07.481Z,100890.75
2022-08-03T05:44:10.491Z,100890.31
2022-08-03T05:49:14.922Z,100890.06
2022-08-03T05:54:17.904Z,100890.97
2022-08-03T05:59:37.633Z,100896.38
2022-08-03T06:04:42.668Z,100902.47
2022-08-03T06:10:37.444Z,100904.81
2022-08-03T06:15:11.237Z,100904.56
2022-08-03T06:20:17.146Z,100909.72
2022-08-03T06:25:21.244Z,100907.78
2022-08-03T06:30:24.798Z,100907.66
2022-08-03T06:35:29.256Z,100901.59
2022-08-03T06:40:32.948Z,100899.28
2022-08-03T06:45:36.405Z,100903.13
2022-08-03T06:50:41.701Z,100909.91
2022-08-03T06:55:45.567Z,100903.81
2022-08-03T07:00:48.534Z,100900.28
2022-08-03T07:05:52.931Z,100898.44
2022-08-03T07:10:55.886Z,100905.22
2022-08-03T07:15:58.863Z,100914.53
2022-08-03T07:21:03.267Z,100916.72
2022-08-03T07:26:06.451Z,100908.47
2022-08-03T07:31:09.462Z,100921.31
2022-08-03T07:36:13.738Z,100909.66
2022-08-03T07:41:16.707Z,100904.69
2022-08-03T07:46:19.656Z,100910.19
2022-08-03T07:51:23.969Z,100912.19
2022-08-03T07:56:26.961Z,100908.16
2022-08-03T08:01:30.355Z,100910.28
2022-08-03T08:06:34.711Z,100910.63
2022-08-03T08:11:40.096Z,100910.16
2022-08-03T08:16:43.372Z,100919.38
2022-08-03T08:21:53.569Z,100918.47
2022-08-03T08:27:05.675Z,100916.91
2022-08-03T08:32:09.132Z,100914.47
2022-08-03T08:37:13.416Z,100912.31
2022-08-03T08:42:16.706Z,100911.25
2022-08-03T08:47:20.302Z,100910.88
2022-08-03T08:52:31.888Z,100907.75
2022-08-03T08:57:44.758Z,100905.47
2022-08-03T09:02:48.020Z,100906.78
2022-08-03T09:07:53.065Z,100900.72
2022-08-03T09:12:56.080Z,100899.97
2022-08-03T09:17:59.587Z,100901.25
2022-08-03T09:23:19.155Z,100897.00
2022-08-03T09:29:01.558Z,100896.16
2022-08-03T09:34:01.128Z,100890.91
2022-08-03T09:39:06.438Z,100893.31
2022-08-03T09:44:24.472Z,100895.22
2022-08-03T09:49:28.533Z,100893.75
2022-08-03T09:54:34.210Z,100889.97
2022-08-03T09:59:41.172Z,100898.19
2022-08-03T10:04:48.094Z,100883.13
2022-08-03T10:10:30.520Z,100876.13
2022-08-03T10:16:21.430Z,100879.38
2022-08-03T10:20:48.647Z,100873.34
2022-08-03T10:25:54.405Z,100871.44
2022-08-03T10:30:57.536Z,100875.06
2022-08-03T10:36:01.959Z,100868.50
2022-08-03T10:41:07.459Z,100870.50
2022-08-03T10:46:10.473Z,100869.81
2022-08-03T10:51:14.229Z,100868.38
2022-08-03T10:57:00.317Z,100866.56
2022-08-03T11:02:18.473Z,100863.59
2022-08-03T11:07:23.378Z,100859.53
2022-08-03T11:12:30.803Z,100854.88
2022-08-03T11:17:46.150Z,100854.63
2022-08-03T11:23:01.106Z,100847.81
2022-08-03T11:28:22.932Z,100854.63
2022-08-03T11:33:33.012Z,100845.88
2022-08-03T11:38:36.032Z,100849.41
2022-08-03T11:43:46.406Z,100839.50
2022-08-03T11:48:51.280Z,100835.81
2022-08-03T11:53:55.213Z,100828.94
2022-08-03T11:59:20.338Z,100822.38
2022-08-03T12:04:23.984Z,100816.78
2022-08-03T12:09:26.942Z,100819.34
2022-08-03T12:14:49.729Z,100813.56
2022-08-03T12:19:54.808Z,100812.97
2022-08-03T12:24:57.751Z,100806.78
2022-08-03T12:30:01.798Z,100808.16
2022-08-03T12:35:06.838Z,100809.25
2022-08-03T12:40:13.286Z,100804.94
2022-08-03T12:45:26.351Z,100807.41
2022-08-03T12:50:31.921Z,100801.69
2022-08-03T12:55:57.855Z,100805.22
2022-08-03T13:00:58.447Z,100796.28
2022-08-03T13:06:02.881Z,100792.59
2022-08-03T13:11:19.142Z,100791.50
2022-08-03T13:16:22.965Z,100792.22
2022-08-03T13:21:27.294Z,100781.50
2022-08-03T13:26:30.265Z,100778.81
2022-08-03T13:31:33.334Z,100782.50
2022-08-03T13:37:06.362Z,100782.09
2022-08-03T13:42:01.381Z,100785.50
2022-08-03T13:47:04.367Z,100785.56
2022-08-03T13:52:08.777Z,100778.09
2022-08-03T13:58:03.617Z,100777.28
2022-08-03T14:02:34.947Z,100790.25
2022-08-03T14:07:39.290Z,100782.56
2022-08-03T14:12:42.242Z,100768.28
2022-08-03T14:17:49.869Z,100774.22
2022-08-03T14:22:55.285Z,100775.72
2022-08-03T14:27:58.181Z,100766.78
2022-08-03T14:33:01.148Z,100766.38
2022-08-03T14:38:05.462Z,100749.34
2022-08-03T14:43:08.457Z,100749.13
2022-08-03T14:50:10.535Z,100749.34
2022-08-03T14:53:36.833Z,100743.38
2022-08-03T14:58:39.831Z,100740.22
2022-08-03T15:03:44.039Z,100743.03
2022-08-03T15:09:13.785Z,100738.63
2022-08-03T15:14:13.582Z,100739.66
2022-08-03T15:20:01.177Z,100738.69
2022-08-03T15:24:42.128Z,100746.31
2022-08-03T15:30:06.873Z,100732.75
2022-08-03T15:35:08.275Z,100731.78
2022-08-03T15:40:13.401Z,100737.13
2022-08-03T15:45:17.818Z,100725.78
2022-08-03T15:50:23.396Z,100732.19
2022-08-03T15:55:27.854Z,100723.78
2022-08-03T16:00:33.404Z,100723.13
2022-08-03T16:05:37.013Z,100709.91
2022-08-03T16:10:41.425Z,100716.25
2022-08-03T16:15:44.411Z,100703.78
2022-08-03T16:20:47.437Z,100699.72
2022-08-03T16:25:51.809Z,100704.94
2022-08-03T16:30:54.789Z,100703.91
2022-08-03T16:35:58.065Z,100709.28
2022-08-03T16:41:02.405Z,100697.34
2022-08-03T16:46:05.411Z,100704.75
2022-08-03T16:51:10.114Z,100702.59
2022-08-03T16:56:14.478Z,100708.09
2022-08-03T17:01:22.230Z,100705.75
2022-08-03T17:06:34.262Z,100709.53
2022-08-03T17:11:46.439Z,100721.13
2022-08-03T17:16:53.914Z,100716.84
2022-08-03T17:22:01.111Z,100725.13
2022-08-03T17:28:41.654Z,100720.13
2022-08-03T17:32:33.525Z,100727.44
2022-08-03T17:37:57.722Z,100730.38
2022-08-03T17:43:01.890Z,100739.50
2022-08-03T17:48:25.389Z,100749.72
2022-08-03T17:53:30.678Z,100754.56
2022-08-03T17:58:41.530Z,100762.84
2022-08-03T18:03:58.262Z,100760.50
2022-08-03T18:10:06.453Z,100775.19
2022-08-03T18:14:57.201Z,100775.59
2022-08-03T18:20:11.649Z,100783.81
2022-08-03T18:25:42.737Z,100780.69
2022-08-03T18:30:53.507Z,100787.41
2022-08-03T18:35:58.079Z,100801.00
2022-08-03T18:41:01.957Z,100801.47
2022-08-03T18:46:07.484Z,100812.44
2022-08-03T18:51:11.834Z,100813.84
2022-08-03T18:56:35.655Z,100828.44
2022-08-03T19:02:00.947Z,100821.78
2022-08-03T19:07:07.926Z,100825.72
2022-08-03T19:12:30.511Z,100834.13
2022-08-03T19:17:38.377Z,100825.06
2022-08-03T19:22:45.852Z,100833.63
2022-08-03T19:27:49.314Z,100837.63
2022-08-03T19:32:54.367Z,100838.84
2022-08-03T19:37:57.564Z,100834.91
2022-08-03T19:43:08.579Z,100836.06
2022-08-03T19:48:14.831Z,100835.44
2022-08-03T19:53:18.517Z,100837.63
2022-08-03T19:58:28.483Z,100838.06
2022-08-03T20:03:42.819Z,100834.81
2022-08-03T20:08:48.199Z,100840.34
2022-08-03T20:13:55.504Z,100834.34
2022-08-03T20:19:01.662Z,100845.28
2022-08-03T20:24:24.411Z,100833.13
2022-08-03T20:29:42.728Z,100839.38
2022-08-03T20:34:55.458Z,100841.41
2022-08-03T20:39:58.464Z,100843.66
2022-08-03T20:45:05.170Z,100844.78
2022-08-03T20:50:11.483Z,100840.59
2022-08-03T20:55:14.794Z,100840.91
2022-08-03T21:00:21.878Z,100847.94
2022-08-03T21:05:47.663Z,100853.28
2022-08-03T21:10:50.032Z,100856.44
2022-08-03T21:16:07.146Z,100859.22
2022-08-03T21:21:19.291Z,100858.44
2022-08-03T21:26:23.340Z,100860.47
2022-08-03T21:31:26.991Z,100871.13
2022-08-03T21:36:32.492Z,100868.59
2022-08-03T21:41:36.716Z,100862.78
2022-08-03T21:46:41.022Z,100870.72
2022-08-03T21:51:46.305Z,100880.66
2022-08-03T21:56:52.121Z,100873.88
2022-08-03T22:01:58.590Z,100877.69
2022-08-03T22:07:03.134Z,100886.66
2022-08-03T22:12:06.685Z,100882.59
2022-08-03T22:17:09.798Z,100886.47
2022-08-03T22:22:15.509Z,100874.47
2022-08-03T22:27:34.369Z,100874.69
2022-08-03T22:32:38.270Z,100885.28
2022-08-03T22:37:42.990Z,100877.78
2022-08-03T22:42:49.472Z,100879.66
2022-08-03T22:47:56.106Z,100870.31
2022-08-03T22:53:00.444Z,100877.63
2022-08-03T22:58:03.460Z,100872.81
2022-08-03T23:03:07.375Z,100879.88
2022-08-03T23:08:13.345Z,100878.19
2022-08-03T23:13:17.472Z,100878.47
2022-08-03T23:18:21.934Z,100876.75
2022-08-03T23:23:26.512Z,100870.19
2022-08-03T23:28:31.206Z,100875.47
2022-08-03T23:33:34.786Z,100867.16
2022-08-03T23:38:39.771Z,100870.69
2022-08-03T23:43:51.942Z,100869.75
2022-08-03T23:48:57.799Z,100869.31
2022-08-03T23:54:04.440Z,100864.03
2022-08-03T23:59:10.984Z,100859.88
